sensor_id;sensor_type;location;lat;lon;timestamp;P1;durP1;ratioP1;P2;durP2;ratioP2
5807;SDS011;2930;42.678;23.312;2023-02-03T00:00:13;0.40;;;0.40;;
5807;SDS011;2930;42.678;23.312;2023-02-03T00:02:39;0.37;;;0.37;;
5807;SDS011;2930;42.678;23.312;2023-02-03T00:05:05;0.30;;;0.30;;
5807;SDS011;2930;42.678;23.312;2023-02-03T00:07:31;0.53;;;0.53;;
5807;SDS011;2930;42.678;23.312;2023-02-03T00:09:58;0.77;;;0.40;;
5807;SDS011;2930;42.678;23.312;2023-02-03T00:12:24;0.43;;;0.40;;
5807;SDS011;2930;42.678;23.312;2023-02-03T00:14:50;0.47;;;0.37;;
5807;SDS011;2930;42.678;23.312;2023-02-03T00:17:15;0.50;;;0.47;;
5807;SDS011;2930;42.678;23.312;2023-02-03T00:19:41;0.60;;;0.60;;
5807;SDS011;2930;42.678;23.312;2023-02-03T00:22:07;0.30;;;0.30;;
5807;SDS011;2930;42.678;23.312;2023-02-03T00:24:32;0.40;;;0.37;;
5807;SDS011;2930;42.678;23.312;2023-02-03T00:26:58;0.80;;;0.23;;
5807;SDS011;2930;42.678;23.312;2023-02-03T00:29:23;0.30;;;0.30;;
5807;SDS011;2930;42.678;23.312;2023-02-03T00:31:50;0.40;;;0.40;;
5807;SDS011;2930;42.678;23.312;2023-02-03T00:34:17;0.40;;;0.40;;
5807;SDS011;2930;42.678;23.312;2023-02-03T00:36:43;0.47;;;0.47;;
5807;SDS011;2930;42.678;23.312;2023-02-03T00:39:12;0.70;;;0.50;;
5807;SDS011;2930;42.678;23.312;2023-02-03T00:41:39;0.33;;;0.33;;
5807;SDS011;2930;42.678;23.312;2023-02-03T00:44:05;0.50;;;0.50;;
5807;SDS011;2930;42.678;23.312;2023-02-03T00:46:30;0.30;;;0.30;;
5807;SDS011;2930;42.678;23.312;2023-02-03T00:48:56;0.40;;;0.40;;
5807;SDS011;2930;42.678;23.312;2023-02-03T00:51:22;0.47;;;0.47;;
5807;SDS011;2930;42.678;23.312;2023-02-03T00:53:47;0.40;;;0.40;;
5807;SDS011;2930;42.678;23.312;2023-02-03T00:56:13;0.30;;;0.30;;
5807;SDS011;2930;42.678;23.312;2023-02-03T00:58:39;0.40;;;0.40;;
5807;SDS011;2930;42.678;23.312;2023-02-03T01:01:05;0.50;;;0.50;;
5807;SDS011;2930;42.678;23.312;2023-02-03T01:03:31;0.30;;;0.30;;
5807;SDS011;2930;42.678;23.312;2023-02-03T01:08:41;0.70;;;0.50;;
5807;SDS011;2930;42.678;23.312;2023-02-03T01:11:09;0.33;;;0.33;;
5807;SDS011;2930;42.678;23.312;2023-02-03T01:13:36;0.40;;;0.40;;
5807;SDS011;2930;42.678;23.312;2023-02-03T01:16:05;0.50;;;0.50;;
5807;SDS011;2930;42.678;23.312;2023-02-03T01:18:31;2.30;;;0.50;;
5807;SDS011;2930;42.678;23.312;2023-02-03T01:20:57;5.20;;;0.50;;
5807;SDS011;2930;42.678;23.312;2023-02-03T01:23:28;0.30;;;0.30;;
5807;SDS011;2930;42.678;23.312;2023-02-03T01:25:53;0.20;;;0.20;;
5807;SDS011;2930;42.678;23.312;2023-02-03T01:28:19;0.20;;;0.20;;
5807;SDS011;2930;42.678;23.312;2023-02-03T01:30:45;0.43;;;0.43;;
5807;SDS011;2930;42.678;23.312;2023-02-03T01:33:10;0.27;;;0.27;;
5807;SDS011;2930;42.678;23.312;2023-02-03T01:35:36;0.10;;;0.10;;
5807;SDS011;2930;42.678;23.312;2023-02-03T01:38:02;0.20;;;0.20;;
5807;SDS011;2930;42.678;23.312;2023-02-03T01:40:27;3.60;;;0.30;;
5807;SDS011;2930;42.678;23.312;2023-02-03T01:42:53;0.30;;;0.30;;
5807;SDS011;2930;42.678;23.312;2023-02-03T01:45:18;0.30;;;0.30;;
5807;SDS011;2930;42.678;23.312;2023-02-03T01:50:19;0.10;;;0.10;;
5807;SDS011;2930;42.678;23.312;2023-02-03T01:52:52;0.10;;;0.10;;
5807;SDS011;2930;42.678;23.312;2023-02-03T01:55:22;0.20;;;0.20;;
5807;SDS011;2930;42.678;23.312;2023-02-03T01:57:55;0.27;;;0.27;;
5807;SDS011;2930;42.678;23.312;2023-02-03T02:00:44;0.10;;;0.10;;
5807;SDS011;2930;42.678;23.312;2023-02-03T02:03:11;0.20;;;0.20;;
5807;SDS011;2930;42.678;23.312;2023-02-03T02:05:39;0.27;;;0.10;;
5807;SDS011;2930;42.678;23.312;2023-02-03T02:08:06;0.20;;;0.20;;
5807;SDS011;2930;42.678;23.312;2023-02-03T02:10:33;0.23;;;0.23;;
5807;SDS011;2930;42.678;23.312;2023-02-03T02:13:00;1.90;;;0.20;;
5807;SDS011;2930;42.678;23.312;2023-02-03T02:20:53;0.20;;;0.20;;
5807;SDS011;2930;42.678;23.312;2023-02-03T02:43:09;0.20;;;0.20;;
5807;SDS011;2930;42.678;23.312;2023-02-03T02:45:49;0.33;;;0.33;;
5807;SDS011;2930;42.678;23.312;2023-02-03T02:50:51;0.30;;;0.30;;
5807;SDS011;2930;42.678;23.312;2023-02-03T02:53:20;0.30;;;0.30;;
5807;SDS011;2930;42.678;23.312;2023-02-03T02:55:48;0.10;;;0.10;;
5807;SDS011;2930;42.678;23.312;2023-02-03T02:58:17;0.20;;;0.20;;
5807;SDS011;2930;42.678;23.312;2023-02-03T03:00:45;0.67;;;0.30;;
5807;SDS011;2930;42.678;23.312;2023-02-03T03:03:13;0.20;;;0.20;;
5807;SDS011;2930;42.678;23.312;2023-02-03T03:05:40;0.30;;;0.30;;
5807;SDS011;2930;42.678;23.312;2023-02-03T03:08:08;0.20;;;0.20;;
5807;SDS011;2930;42.678;23.312;2023-02-03T03:10:37;0.20;;;0.20;;
5807;SDS011;2930;42.678;23.312;2023-02-03T03:13:06;0.20;;;0.20;;
5807;SDS011;2930;42.678;23.312;2023-02-03T03:15:36;0.60;;;0.33;;
5807;SDS011;2930;42.678;23.312;2023-02-03T03:18:04;0.93;;;0.40;;
5807;SDS011;2930;42.678;23.312;2023-02-03T03:20:38;0.10;;;0.10;;
5807;SDS011;2930;42.678;23.312;2023-02-03T03:23:10;0.40;;;0.40;;
5807;SDS011;2930;42.678;23.312;2023-02-03T03:25:43;0.53;;;0.20;;
5807;SDS011;2930;42.678;23.312;2023-02-03T03:28:16;0.20;;;0.20;;
5807;SDS011;2930;42.678;23.312;2023-02-03T03:30:54;0.10;;;0.10;;
5807;SDS011;2930;42.678;23.312;2023-02-03T03:33:20;0.20;;;0.20;;
5807;SDS011;2930;42.678;23.312;2023-02-03T03:35:57;1.43;;;0.50;;
5807;SDS011;2930;42.678;23.312;2023-02-03T03:38:33;0.20;;;0.20;;
5807;SDS011;2930;42.678;23.312;2023-02-03T03:41:11;0.20;;;0.20;;
5807;SDS011;2930;42.678;23.312;2023-02-03T03:43:47;0.20;;;0.20;;
5807;SDS011;2930;42.678;23.312;2023-02-03T03:46:21;0.30;;;0.30;;
5807;SDS011;2930;42.678;23.312;2023-02-03T03:48:59;0.20;;;0.20;;
5807;SDS011;2930;42.678;23.312;2023-02-03T03:51:39;0.20;;;0.20;;
5807;SDS011;2930;42.678;23.312;2023-02-03T03:54:10;0.10;;;0.10;;
5807;SDS011;2930;42.678;23.312;2023-02-03T03:56:51;0.20;;;0.20;;
5807;SDS011;2930;42.678;23.312;2023-02-03T03:59:20;0.10;;;0.10;;
5807;SDS011;2930;42.678;23.312;2023-02-03T04:01:48;0.20;;;0.20;;
5807;SDS011;2930;42.678;23.312;2023-02-03T04:04:15;0.17;;;0.17;;
5807;SDS011;2930;42.678;23.312;2023-02-03T04:06:42;0.20;;;0.20;;
5807;SDS011;2930;42.678;23.312;2023-02-03T04:09:07;0.10;;;0.10;;
5807;SDS011;2930;42.678;23.312;2023-02-03T04:11:33;0.17;;;0.17;;
5807;SDS011;2930;42.678;23.312;2023-02-03T04:14:17;0.20;;;0.20;;
5807;SDS011;2930;42.678;23.312;2023-02-03T04:16:43;0.13;;;0.13;;
5807;SDS011;2930;42.678;23.312;2023-02-03T04:19:09;0.37;;;0.37;;
5807;SDS011;2930;42.678;23.312;2023-02-03T04:21:34;0.20;;;0.20;;
5807;SDS011;2930;42.678;23.312;2023-02-03T04:24:00;0.27;;;0.27;;
5807;SDS011;2930;42.678;23.312;2023-02-03T04:26:25;0.30;;;0.30;;
5807;SDS011;2930;42.678;23.312;2023-02-03T04:28:51;0.30;;;0.30;;
5807;SDS011;2930;42.678;23.312;2023-02-03T04:31:17;0.30;;;0.30;;
5807;SDS011;2930;42.678;23.312;2023-02-03T04:33:42;0.30;;;0.30;;
5807;SDS011;2930;42.678;23.312;2023-02-03T04:36:08;0.10;;;0.10;;
5807;SDS011;2930;42.678;23.312;2023-02-03T04:38:34;0.23;;;0.23;;
5807;SDS011;2930;42.678;23.312;2023-02-03T04:41:00;2.73;;;0.57;;
5807;SDS011;2930;42.678;23.312;2023-02-03T04:43:25;0.30;;;0.30;;
5807;SDS011;2930;42.678;23.312;2023-02-03T04:45:51;0.50;;;0.23;;
5807;SDS011;2930;42.678;23.312;2023-02-03T04:48:17;0.70;;;0.40;;
5807;SDS011;2930;42.678;23.312;2023-02-03T04:50:42;0.40;;;0.30;;
5807;SDS011;2930;42.678;23.312;2023-02-03T04:53:08;0.20;;;0.20;;
5807;SDS011;2930;42.678;23.312;2023-02-03T04:55:34;0.20;;;0.20;;
5807;SDS011;2930;42.678;23.312;2023-02-03T04:57:59;0.20;;;0.20;;
5807;SDS011;2930;42.678;23.312;2023-02-03T05:00:26;0.50;;;0.50;;
5807;SDS011;2930;42.678;23.312;2023-02-03T05:02:52;0.20;;;0.20;;
5807;SDS011;2930;42.678;23.312;2023-02-03T05:05:18;0.33;;;0.33;;
5807;SDS011;2930;42.678;23.312;2023-02-03T05:07:44;0.30;;;0.30;;
5807;SDS011;2930;42.678;23.312;2023-02-03T05:10:10;0.40;;;0.40;;
5807;SDS011;2930;42.678;23.312;2023-02-03T05:12:36;0.20;;;0.20;;
5807;SDS011;2930;42.678;23.312;2023-02-03T05:15:01;0.20;;;0.20;;
5807;SDS011;2930;42.678;23.312;2023-02-03T05:17:27;0.10;;;0.10;;
5807;SDS011;2930;42.678;23.312;2023-02-03T05:19:53;0.13;;;0.13;;
5807;SDS011;2930;42.678;23.312;2023-02-03T05:22:18;0.20;;;0.20;;
5807;SDS011;2930;42.678;23.312;2023-02-03T05:24:44;0.40;;;0.40;;
5807;SDS011;2930;42.678;23.312;2023-02-03T05:27:10;0.20;;;0.20;;
5807;SDS011;2930;42.678;23.312;2023-02-03T05:29:36;0.30;;;0.30;;
5807;SDS011;2930;42.678;23.312;2023-02-03T05:32:01;0.30;;;0.30;;
5807;SDS011;2930;42.678;23.312;2023-02-03T05:34:27;0.20;;;0.20;;
5807;SDS011;2930;42.678;23.312;2023-02-03T05:36:53;0.10;;;0.10;;
5807;SDS011;2930;42.678;23.312;2023-02-03T05:39:18;0.30;;;0.30;;
5807;SDS011;2930;42.678;23.312;2023-02-03T05:41:44;0.20;;;0.20;;
5807;SDS011;2930;42.678;23.312;2023-02-03T05:44:19;0.30;;;0.30;;
5807;SDS011;2930;42.678;23.312;2023-02-03T05:46:45;0.20;;;0.20;;
5807;SDS011;2930;42.678;23.312;2023-02-03T05:49:12;0.20;;;0.20;;
5807;SDS011;2930;42.678;23.312;2023-02-03T05:51:38;0.40;;;0.40;;
5807;SDS011;2930;42.678;23.312;2023-02-03T05:54:04;0.30;;;0.30;;
5807;SDS011;2930;42.678;23.312;2023-02-03T05:56:30;0.20;;;0.20;;
5807;SDS011;2930;42.678;23.312;2023-02-03T05:58:56;0.73;;;0.40;;
5807;SDS011;2930;42.678;23.312;2023-02-03T06:01:21;0.20;;;0.20;;
5807;SDS011;2930;42.678;23.312;2023-02-03T06:03:47;0.63;;;0.47;;
5807;SDS011;2930;42.678;23.312;2023-02-03T06:06:13;0.43;;;0.30;;
5807;SDS011;2930;42.678;23.312;2023-02-03T06:08:40;0.20;;;0.20;;
5807;SDS011;2930;42.678;23.312;2023-02-03T06:11:06;0.20;;;0.20;;
5807;SDS011;2930;42.678;23.312;2023-02-03T06:13:31;2.43;;;0.60;;
5807;SDS011;2930;42.678;23.312;2023-02-03T06:15:57;0.20;;;0.20;;
5807;SDS011;2930;42.678;23.312;2023-02-03T06:18:23;0.10;;;0.10;;
5807;SDS011;2930;42.678;23.312;2023-02-03T06:20:49;0.20;;;0.20;;
5807;SDS011;2930;42.678;23.312;2023-02-03T06:23:15;0.40;;;0.33;;
5807;SDS011;2930;42.678;23.312;2023-02-03T06:25:46;0.20;;;0.20;;
5807;SDS011;2930;42.678;23.312;2023-02-03T06:28:13;0.23;;;0.23;;
5807;SDS011;2930;42.678;23.312;2023-02-03T06:30:39;0.13;;;0.13;;
5807;SDS011;2930;42.678;23.312;2023-02-03T06:33:04;0.23;;;0.23;;
5807;SDS011;2930;42.678;23.312;2023-02-03T06:35:30;0.10;;;0.10;;
5807;SDS011;2930;42.678;23.312;2023-02-03T06:37:56;0.40;;;0.40;;
5807;SDS011;2930;42.678;23.312;2023-02-03T06:40:21;0.10;;;0.10;;
5807;SDS011;2930;42.678;23.312;2023-02-03T06:42:47;0.10;;;0.10;;
5807;SDS011;2930;42.678;23.312;2023-02-03T06:45:13;0.20;;;0.20;;
5807;SDS011;2930;42.678;23.312;2023-02-03T06:47:40;0.20;;;0.20;;
5807;SDS011;2930;42.678;23.312;2023-02-03T06:50:06;0.20;;;0.20;;
5807;SDS011;2930;42.678;23.312;2023-02-03T06:52:33;0.30;;;0.30;;
5807;SDS011;2930;42.678;23.312;2023-02-03T06:54:58;0.20;;;0.20;;
5807;SDS011;2930;42.678;23.312;2023-02-03T06:57:24;0.40;;;0.40;;
5807;SDS011;2930;42.678;23.312;2023-02-03T06:59:50;0.63;;;0.40;;
5807;SDS011;2930;42.678;23.312;2023-02-03T07:02:15;0.93;;;0.40;;
5807;SDS011;2930;42.678;23.312;2023-02-03T07:04:41;0.30;;;0.30;;
5807;SDS011;2930;42.678;23.312;2023-02-03T07:07:09;0.47;;;0.47;;
5807;SDS011;2930;42.678;23.312;2023-02-03T07:09:36;3.13;;;0.60;;
5807;SDS011;2930;42.678;23.312;2023-02-03T07:12:02;0.47;;;0.47;;
5807;SDS011;2930;42.678;23.312;2023-02-03T07:14:28;0.30;;;0.30;;
5807;SDS011;2930;42.678;23.312;2023-02-03T07:16:55;0.30;;;0.30;;
5807;SDS011;2930;42.678;23.312;2023-02-03T07:19:20;1.13;;;0.37;;
5807;SDS011;2930;42.678;23.312;2023-02-03T07:21:46;0.50;;;0.50;;
5807;SDS011;2930;42.678;23.312;2023-02-03T07:24:12;0.50;;;0.47;;
5807;SDS011;2930;42.678;23.312;2023-02-03T07:26:38;0.70;;;0.70;;
5807;SDS011;2930;42.678;23.312;2023-02-03T07:29:04;1.17;;;1.07;;
5807;SDS011;2930;42.678;23.312;2023-02-03T07:31:29;0.80;;;0.80;;
5807;SDS011;2930;42.678;23.312;2023-02-03T07:33:55;0.80;;;0.80;;
5807;SDS011;2930;42.678;23.312;2023-02-03T07:36:21;0.30;;;0.30;;
5807;SDS011;2930;42.678;23.312;2023-02-03T07:38:48;0.53;;;0.53;;
5807;SDS011;2930;42.678;23.312;2023-02-03T07:41:14;0.53;;;0.53;;
5807;SDS011;2930;42.678;23.312;2023-02-03T07:43:40;0.57;;;0.57;;
5807;SDS011;2930;42.678;23.312;2023-02-03T07:46:05;0.83;;;0.83;;
5807;SDS011;2930;42.678;23.312;2023-02-03T07:48:31;0.53;;;0.53;;
5807;SDS011;2930;42.678;23.312;2023-02-03T07:50:57;0.40;;;0.40;;
5807;SDS011;2930;42.678;23.312;2023-02-03T07:53:23;0.60;;;0.50;;
5807;SDS011;2930;42.678;23.312;2023-02-03T07:55:48;0.50;;;0.50;;
5807;SDS011;2930;42.678;23.312;2023-02-03T07:58:14;0.50;;;0.50;;
5807;SDS011;2930;42.678;23.312;2023-02-03T08:00:41;0.38;;;0.38;;
5807;SDS011;2930;42.678;23.312;2023-02-03T08:03:06;0.63;;;0.63;;
5807;SDS011;2930;42.678;23.312;2023-02-03T08:05:32;0.70;;;0.60;;
5807;SDS011;2930;42.678;23.312;2023-02-03T08:07:58;0.60;;;0.60;;
5807;SDS011;2930;42.678;23.312;2023-02-03T08:10:23;1.50;;;0.68;;
5807;SDS011;2930;42.678;23.312;2023-02-03T08:12:53;2.92;;;0.60;;
5807;SDS011;2930;42.678;23.312;2023-02-03T08:15:19;0.88;;;0.50;;
5807;SDS011;2930;42.678;23.312;2023-02-03T08:17:44;1.00;;;0.75;;
5807;SDS011;2930;42.678;23.312;2023-02-03T08:20:10;0.45;;;0.45;;
5807;SDS011;2930;42.678;23.312;2023-02-03T08:22:36;1.52;;;0.75;;
5807;SDS011;2930;42.678;23.312;2023-02-03T08:25:02;0.60;;;0.60;;
5807;SDS011;2930;42.678;23.312;2023-02-03T08:27:28;0.57;;;0.57;;
5807;SDS011;2930;42.678;23.312;2023-02-03T08:29:56;0.63;;;0.63;;
5807;SDS011;2930;42.678;23.312;2023-02-03T08:32:21;0.70;;;0.70;;
5807;SDS011;2930;42.678;23.312;2023-02-03T08:34:47;1.52;;;0.47;;
5807;SDS011;2930;42.678;23.312;2023-02-03T08:37:14;0.65;;;0.65;;
5807;SDS011;2930;42.678;23.312;2023-02-03T08:39:41;0.73;;;0.73;;
5807;SDS011;2930;42.678;23.312;2023-02-03T08:42:07;0.77;;;0.77;;
5807;SDS011;2930;42.678;23.312;2023-02-03T08:44:33;1.27;;;1.27;;
5807;SDS011;2930;42.678;23.312;2023-02-03T08:46:59;1.00;;;1.00;;
5807;SDS011;2930;42.678;23.312;2023-02-03T08:49:27;0.82;;;0.82;;
5807;SDS011;2930;42.678;23.312;2023-02-03T08:51:54;0.65;;;0.40;;
5807;SDS011;2930;42.678;23.312;2023-02-03T08:54:20;0.57;;;0.57;;
5807;SDS011;2930;42.678;23.312;2023-02-03T08:56:47;0.55;;;0.55;;
5807;SDS011;2930;42.678;23.312;2023-02-03T08:59:12;0.93;;;0.52;;
5807;SDS011;2930;42.678;23.312;2023-02-03T09:01:39;0.60;;;0.60;;
5807;SDS011;2930;42.678;23.312;2023-02-03T09:04:08;0.47;;;0.47;;
5807;SDS011;2930;42.678;23.312;2023-02-03T09:06:34;0.40;;;0.40;;
5807;SDS011;2930;42.678;23.312;2023-02-03T09:09:00;0.50;;;0.50;;
5807;SDS011;2930;42.678;23.312;2023-02-03T09:11:26;0.60;;;0.60;;
5807;SDS011;2930;42.678;23.312;2023-02-03T09:13:52;0.60;;;0.60;;
5807;SDS011;2930;42.678;23.312;2023-02-03T09:16:18;0.40;;;0.40;;
5807;SDS011;2930;42.678;23.312;2023-02-03T09:18:47;0.93;;;0.40;;
5807;SDS011;2930;42.678;23.312;2023-02-03T09:21:13;0.60;;;0.60;;
5807;SDS011;2930;42.678;23.312;2023-02-03T09:23:42;0.45;;;0.45;;
5807;SDS011;2930;42.678;23.312;2023-02-03T09:26:12;1.33;;;0.50;;
5807;SDS011;2930;42.678;23.312;2023-02-03T09:28:39;0.67;;;0.67;;
5807;SDS011;2930;42.678;23.312;2023-02-03T09:31:06;0.40;;;0.40;;
5807;SDS011;2930;42.678;23.312;2023-02-03T09:33:39;1.13;;;0.65;;
5807;SDS011;2930;42.678;23.312;2023-02-03T09:36:05;0.40;;;0.40;;
5807;SDS011;2930;42.678;23.312;2023-02-03T09:38:34;0.60;;;0.60;;
5807;SDS011;2930;42.678;23.312;2023-02-03T09:41:12;0.50;;;0.50;;
5807;SDS011;2930;42.678;23.312;2023-02-03T09:46:25;0.50;;;0.50;;
5807;SDS011;2930;42.678;23.312;2023-02-03T09:48:57;0.40;;;0.40;;
5807;SDS011;2930;42.678;23.312;2023-02-03T09:51:33;0.30;;;0.30;;
5807;SDS011;2930;42.678;23.312;2023-02-03T09:54:26;0.75;;;0.75;;
5807;SDS011;2930;42.678;23.312;2023-02-03T09:57:22;0.57;;;0.57;;
5807;SDS011;2930;42.678;23.312;2023-02-03T09:59:52;0.75;;;0.75;;
5807;SDS011;2930;42.678;23.312;2023-02-03T10:05:09;0.32;;;0.32;;
5807;SDS011;2930;42.678;23.312;2023-02-03T10:07:50;0.50;;;0.50;;
5807;SDS011;2930;42.678;23.312;2023-02-03T10:10:39;0.50;;;0.50;;
5807;SDS011;2930;42.678;23.312;2023-02-03T10:16:07;0.60;;;0.60;;
5807;SDS011;2930;42.678;23.312;2023-02-03T10:18:38;0.68;;;0.68;;
5807;SDS011;2930;42.678;23.312;2023-02-03T10:21:40;0.40;;;0.40;;
5807;SDS011;2930;42.678;23.312;2023-02-03T10:24:03;0.80;;;0.80;;
5807;SDS011;2930;42.678;23.312;2023-02-03T10:26:34;0.47;;;0.47;;
5807;SDS011;2930;42.678;23.312;2023-02-03T10:29:05;0.70;;;0.70;;
5807;SDS011;2930;42.678;23.312;2023-02-03T10:31:41;0.35;;;0.35;;
5807;SDS011;2930;42.678;23.312;2023-02-03T10:34:09;0.50;;;0.50;;
5807;SDS011;2930;42.678;23.312;2023-02-03T10:41:46;1.55;;;0.40;;
5807;SDS011;2930;42.678;23.312;2023-02-03T10:44:12;0.40;;;0.40;;
5807;SDS011;2930;42.678;23.312;2023-02-03T10:46:39;0.67;;;0.40;;
5807;SDS011;2930;42.678;23.312;2023-02-03T10:49:07;0.53;;;0.53;;
5807;SDS011;2930;42.678;23.312;2023-02-03T10:54:04;0.40;;;0.40;;
5807;SDS011;2930;42.678;23.312;2023-02-03T10:56:51;0.40;;;0.40;;
5807;SDS011;2930;42.678;23.312;2023-02-03T10:59:32;0.53;;;0.40;;
5807;SDS011;2930;42.678;23.312;2023-02-03T11:02:05;0.30;;;0.30;;
5807;SDS011;2930;42.678;23.312;2023-02-03T11:04:44;0.50;;;0.50;;
5807;SDS011;2930;42.678;23.312;2023-02-03T11:07:24;0.60;;;0.60;;
5807;SDS011;2930;42.678;23.312;2023-02-03T11:09:50;0.40;;;0.30;;
5807;SDS011;2930;42.678;23.312;2023-02-03T11:12:19;0.40;;;0.40;;
5807;SDS011;2930;42.678;23.312;2023-02-03T11:14:49;0.60;;;0.60;;
5807;SDS011;2930;42.678;23.312;2023-02-03T11:17:17;0.43;;;0.43;;
5807;SDS011;2930;42.678;23.312;2023-02-03T11:19:47;0.30;;;0.30;;
5807;SDS011;2930;42.678;23.312;2023-02-03T11:22:28;0.60;;;0.60;;
5807;SDS011;2930;42.678;23.312;2023-02-03T11:24:54;0.43;;;0.30;;
5807;SDS011;2930;42.678;23.312;2023-02-03T11:27:20;0.20;;;0.20;;
5807;SDS011;2930;42.678;23.312;2023-02-03T11:29:49;0.50;;;0.43;;
5807;SDS011;2930;42.678;23.312;2023-02-03T11:32:19;0.30;;;0.30;;
5807;SDS011;2930;42.678;23.312;2023-02-03T11:34:56;0.30;;;0.30;;
5807;SDS011;2930;42.678;23.312;2023-02-03T11:37:26;1.60;;;0.40;;
5807;SDS011;2930;42.678;23.312;2023-02-03T11:42:33;0.30;;;0.30;;
5807;SDS011;2930;42.678;23.312;2023-02-03T11:54:01;0.45;;;0.40;;
5807;SDS011;2930;42.678;23.312;2023-02-03T11:59:29;0.40;;;0.40;;
5807;SDS011;2930;42.678;23.312;2023-02-03T12:10:33;0.55;;;0.40;;
5807;SDS011;2930;42.678;23.312;2023-02-03T12:13:13;0.40;;;0.40;;
5807;SDS011;2930;42.678;23.312;2023-02-03T12:21:59;0.45;;;0.40;;
5807;SDS011;2930;42.678;23.312;2023-02-03T12:29:57;0.27;;;0.27;;
5807;SDS011;2930;42.678;23.312;2023-02-03T12:32:35;0.32;;;0.32;;
5807;SDS011;2930;42.678;23.312;2023-02-03T12:40:46;0.87;;;0.40;;
5807;SDS011;2930;42.678;23.312;2023-02-03T12:46:22;0.60;;;0.37;;
5807;SDS011;2930;42.678;23.312;2023-02-03T12:49:04;0.30;;;0.30;;
5807;SDS011;2930;42.678;23.312;2023-02-03T12:51:58;0.47;;;0.47;;
5807;SDS011;2930;42.678;23.312;2023-02-03T12:57:35;0.30;;;0.30;;
5807;SDS011;2930;42.678;23.312;2023-02-03T13:02:55;0.40;;;0.40;;
5807;SDS011;2930;42.678;23.312;2023-02-03T13:05:53;0.80;;;0.80;;
5807;SDS011;2930;42.678;23.312;2023-02-03T13:08:38;0.87;;;0.70;;
5807;SDS011;2930;42.678;23.312;2023-02-03T13:11:26;6.10;;;0.60;;
5807;SDS011;2930;42.678;23.312;2023-02-03T13:14:19;0.80;;;0.80;;
5807;SDS011;2930;42.678;23.312;2023-02-03T13:16:48;0.70;;;0.70;;
5807;SDS011;2930;42.678;23.312;2023-02-03T13:19:19;0.63;;;0.63;;
5807;SDS011;2930;42.678;23.312;2023-02-03T13:21:47;2.78;;;0.70;;
5807;SDS011;2930;42.678;23.312;2023-02-03T13:24:13;0.70;;;0.70;;
5807;SDS011;2930;42.678;23.312;2023-02-03T13:29:19;0.75;;;0.75;;
5807;SDS011;2930;42.678;23.312;2023-02-03T13:43:19;0.80;;;0.80;;
5807;SDS011;2930;42.678;23.312;2023-02-03T13:45:52;0.80;;;0.68;;
5807;SDS011;2930;42.678;23.312;2023-02-03T13:48:23;1.17;;;0.60;;
5807;SDS011;2930;42.678;23.312;2023-02-03T13:51:03;0.45;;;0.45;;
5807;SDS011;2930;42.678;23.312;2023-02-03T13:53:38;0.77;;;0.77;;
5807;SDS011;2930;42.678;23.312;2023-02-03T13:56:07;1.80;;;0.93;;
5807;SDS011;2930;42.678;23.312;2023-02-03T14:01:37;0.80;;;0.80;;
5807;SDS011;2930;42.678;23.312;2023-02-03T14:09:32;1.70;;;0.93;;
5807;SDS011;2930;42.678;23.312;2023-02-03T14:19:58;0.83;;;0.63;;
5807;SDS011;2930;42.678;23.312;2023-02-03T14:22:24;0.90;;;0.90;;
5807;SDS011;2930;42.678;23.312;2023-02-03T14:24:51;0.63;;;0.63;;
5807;SDS011;2930;42.678;23.312;2023-02-03T14:27:24;0.53;;;0.53;;
5807;SDS011;2930;42.678;23.312;2023-02-03T14:30:11;0.50;;;0.50;;
5807;SDS011;2930;42.678;23.312;2023-02-03T14:32:55;0.80;;;0.80;;
5807;SDS011;2930;42.678;23.312;2023-02-03T14:35:22;1.73;;;1.10;;
5807;SDS011;2930;42.678;23.312;2023-02-03T14:38:00;1.10;;;1.00;;
5807;SDS011;2930;42.678;23.312;2023-02-03T14:59:44;0.50;;;0.50;;
5807;SDS011;2930;42.678;23.312;2023-02-03T15:02:15;0.47;;;0.47;;
5807;SDS011;2930;42.678;23.312;2023-02-03T15:04:47;0.40;;;0.40;;
5807;SDS011;2930;42.678;23.312;2023-02-03T15:10:00;0.83;;;0.70;;
5807;SDS011;2930;42.678;23.312;2023-02-03T15:12:26;0.40;;;0.40;;
5807;SDS011;2930;42.678;23.312;2023-02-03T15:14:53;0.50;;;0.50;;
5807;SDS011;2930;42.678;23.312;2023-02-03T15:17:37;2.17;;;0.60;;
5807;SDS011;2930;42.678;23.312;2023-02-03T15:20:14;1.23;;;0.60;;
5807;SDS011;2930;42.678;23.312;2023-02-03T15:22:59;0.50;;;0.50;;
5807;SDS011;2930;42.678;23.312;2023-02-03T15:25:27;0.53;;;0.53;;
5807;SDS011;2930;42.678;23.312;2023-02-03T15:28:08;1.07;;;0.70;;
5807;SDS011;2930;42.678;23.312;2023-02-03T15:30:44;2.90;;;0.73;;
5807;SDS011;2930;42.678;23.312;2023-02-03T15:33:14;0.80;;;0.80;;
5807;SDS011;2930;42.678;23.312;2023-02-03T15:35:45;0.50;;;0.50;;
5807;SDS011;2930;42.678;23.312;2023-02-03T15:38:23;0.60;;;0.40;;
5807;SDS011;2930;42.678;23.312;2023-02-03T15:40:52;0.40;;;0.40;;
5807;SDS011;2930;42.678;23.312;2023-02-03T15:45:59;0.50;;;0.43;;
5807;SDS011;2930;42.678;23.312;2023-02-03T15:48:38;0.93;;;0.60;;
5807;SDS011;2930;42.678;23.312;2023-02-03T15:56:27;0.43;;;0.43;;
5807;SDS011;2930;42.678;23.312;2023-02-03T15:59:14;1.13;;;0.77;;
5807;SDS011;2930;42.678;23.312;2023-02-03T16:01:54;0.90;;;0.90;;
5807;SDS011;2930;42.678;23.312;2023-02-03T16:04:21;1.40;;;0.80;;
5807;SDS011;2930;42.678;23.312;2023-02-03T16:06:49;0.50;;;0.50;;
5807;SDS011;2930;42.678;23.312;2023-02-03T16:14:48;0.40;;;0.40;;
5807;SDS011;2930;42.678;23.312;2023-02-03T16:19:47;0.53;;;0.53;;
5807;SDS011;2930;42.678;23.312;2023-02-03T16:22:34;0.30;;;0.30;;
5807;SDS011;2930;42.678;23.312;2023-02-03T16:25:21;0.60;;;0.60;;
5807;SDS011;2930;42.678;23.312;2023-02-03T16:30:54;0.90;;;0.50;;
5807;SDS011;2930;42.678;23.312;2023-02-03T16:33:52;0.60;;;0.60;;
5807;SDS011;2930;42.678;23.312;2023-02-03T16:36:41;0.60;;;0.57;;
5807;SDS011;2930;42.678;23.312;2023-02-03T16:39:26;0.47;;;0.47;;
5807;SDS011;2930;42.678;23.312;2023-02-03T16:42:16;0.40;;;0.40;;
5807;SDS011;2930;42.678;23.312;2023-02-03T16:45:02;0.40;;;0.40;;
5807;SDS011;2930;42.678;23.312;2023-02-03T16:47:53;0.43;;;0.43;;
5807;SDS011;2930;42.678;23.312;2023-02-03T16:50:37;0.80;;;0.80;;
5807;SDS011;2930;42.678;23.312;2023-02-03T16:53:22;0.43;;;0.43;;
5807;SDS011;2930;42.678;23.312;2023-02-03T16:55:53;0.73;;;0.60;;
5807;SDS011;2930;42.678;23.312;2023-02-03T16:58:20;0.90;;;0.90;;
5807;SDS011;2930;42.678;23.312;2023-02-03T17:00:47;0.70;;;0.70;;
5807;SDS011;2930;42.678;23.312;2023-02-03T17:03:16;2.57;;;0.80;;
5807;SDS011;2930;42.678;23.312;2023-02-03T17:05:44;1.33;;;0.70;;
5807;SDS011;2930;42.678;23.312;2023-02-03T17:08:11;0.90;;;0.43;;
5807;SDS011;2930;42.678;23.312;2023-02-03T17:10:38;1.73;;;1.03;;
5807;SDS011;2930;42.678;23.312;2023-02-03T17:13:05;2.60;;;1.43;;
5807;SDS011;2930;42.678;23.312;2023-02-03T17:15:32;1.30;;;1.17;;
5807;SDS011;2930;42.678;23.312;2023-02-03T17:18:08;1.97;;;1.33;;
5807;SDS011;2930;42.678;23.312;2023-02-03T17:20:34;1.27;;;1.23;;
5807;SDS011;2930;42.678;23.312;2023-02-03T17:23:01;1.60;;;1.10;;
5807;SDS011;2930;42.678;23.312;2023-02-03T17:25:27;1.13;;;0.80;;
5807;SDS011;2930;42.678;23.312;2023-02-03T17:27:53;1.43;;;1.17;;
5807;SDS011;2930;42.678;23.312;2023-02-03T17:30:18;2.17;;;1.10;;
5807;SDS011;2930;42.678;23.312;2023-02-03T17:32:44;0.73;;;0.73;;
5807;SDS011;2930;42.678;23.312;2023-02-03T17:35:10;0.80;;;0.80;;
5807;SDS011;2930;42.678;23.312;2023-02-03T17:37:35;0.93;;;0.87;;
5807;SDS011;2930;42.678;23.312;2023-02-03T17:40:02;0.73;;;0.73;;
5807;SDS011;2930;42.678;23.312;2023-02-03T17:42:28;0.50;;;0.50;;
5807;SDS011;2930;42.678;23.312;2023-02-03T17:44:53;0.30;;;0.30;;
5807;SDS011;2930;42.678;23.312;2023-02-03T17:47:19;0.83;;;0.83;;
5807;SDS011;2930;42.678;23.312;2023-02-03T17:49:45;0.40;;;0.40;;
5807;SDS011;2930;42.678;23.312;2023-02-03T17:52:12;0.70;;;0.70;;
5807;SDS011;2930;42.678;23.312;2023-02-03T17:54:37;0.70;;;0.70;;
5807;SDS011;2930;42.678;23.312;2023-02-03T17:57:03;0.50;;;0.50;;
5807;SDS011;2930;42.678;23.312;2023-02-03T17:59:29;0.80;;;0.80;;
5807;SDS011;2930;42.678;23.312;2023-02-03T18:01:54;0.50;;;0.50;;
5807;SDS011;2930;42.678;23.312;2023-02-03T18:04:20;0.50;;;0.50;;